CYHZ

Halifax / Stanfield International Airport

Halifax, Nova Scotia, Canada
METAR CYHZ 172100Z 29010G16KT 15SM FEW030 FEW120 M07/M12 A2997 RMK CF1AC1 CF TR AC TR SLP159
Observed Flight Rules
Dec-17 @ 21:00 UTC (25 minutes ago) Visual Flight Rules
Wind Visibility Clouds
290° at 10 knots
 Gusting to 16 knots
15 miles
  • Few at 3,000' AGL
  • Few at 12,000' AGL
Temperatures Readings
Current -7°C / 19°F
Dewpoint -12°C / 10°F
Humidity 68%
Altimeter 29.97" Hg
Pressure 1015.9 hPa
Elevation 145
METAR CYHZ 172100Z 29010G16KT 15SM FEW030 FEW120 M07/M12 A2997 RMK CF1AC1 CF TR AC TR SLP159
Observed Flight Rules
Dec-17 @ 21:00 UTC
(25 minutes ago)
VFR
Wind Visibility
290° at 10 knots
 Gusting to 16 knots
15 miles
Clouds
  • Few at 3,000' AGL
  • Few at 12,000' AGL
Temperature Dewpoint
-7°C / 19°F -12°C / 10°F
Humidity Altimeter Pressure
68% 29.97" Hg 1015.9 hPa